Time;durP1;ratioP1;P1;durP2;ratioP2;P2;SDS_P1;SDS_P2;PMS_P1;PMS_P2;Temp;Humidity;BMP_temperature;BMP_pressure;BME280_temperature;BME280_humidity;BME280_pressure;Samples;Min_cycle;Max_cycle;Signal;HPM_P1;HPM_P2
2024/01/20 00:00:42;;;;;;;7.00;3.20;;;;;;;-2.85;80.86;97168.50;108680;1273;24221;-81
2024/01/20 00:03:33;;;;;;;13.10;5.10;;;;;;;-2.84;81.03;97166.67;108616;1273;24208;-81
2024/01/20 00:06:07;;;;;;;9.30;4.90;;;;;;;-2.84;81.16;97169.74;108665;1272;23333;-81
2024/01/20 00:08:38;;;;;;;11.10;5.50;;;;;;;-2.84;81.30;97168.73;108698;1265;23168;-81
2024/01/20 00:11:14;;;;;;;9.10;4.60;;;;;;;-2.83;81.28;97169.87;108669;1273;22553;-81
2024/01/20 00:13:50;;;;;;;9.40;5.20;;;;;;;-2.81;81.16;97173.59;108688;1272;22524;-81
2024/01/20 00:16:22;;;;;;;10.60;4.90;;;;;;;-2.80;81.39;97169.30;108676;1266;22554;-81
2024/01/20 00:18:56;;;;;;;15.80;5.30;;;;;;;-2.78;81.35;97173.92;108686;1273;22634;-81
2024/01/20 00:21:30;;;;;;;10.70;5.50;;;;;;;-2.75;81.41;97179.27;108748;1273;23948;-81
2024/01/20 00:24:01;;;;;;;7.70;3.10;;;;;;;-2.73;81.45;97180.95;108700;1273;22531;-81
2024/01/20 00:26:37;;;;;;;11.90;4.00;;;;;;;-2.72;81.64;97180.96;108715;1273;22539;-81
2024/01/20 00:29:10;;;;;;;10.30;5.00;;;;;;;-2.71;81.64;97183.94;108673;1266;24824;-80
2024/01/20 00:31:41;;;;;;;11.40;4.70;;;;;;;-2.69;81.80;97184.98;108718;1273;23442;-81
2024/01/20 00:34:15;;;;;;;12.20;5.40;;;;;;;-2.69;81.88;97183.27;108690;1273;24894;-81
2024/01/20 00:36:46;;;;;;;14.00;5.20;;;;;;;-2.71;81.70;97187.96;108736;1273;25284;-81
2024/01/20 00:39:17;;;;;;;11.00;4.60;;;;;;;-2.70;81.83;97192.88;108675;1273;25518;-81
2024/01/20 00:41:49;;;;;;;9.50;4.60;;;;;;;-2.69;82.12;97190.30;108736;1273;22524;-81
2024/01/20 00:44:20;;;;;;;7.80;3.20;;;;;;;-2.66;82.00;97191.43;108685;1273;22530;-81
2024/01/20 00:46:53;;;;;;;11.70;4.80;;;;;;;-2.67;82.06;97193.73;108692;1269;22541;-81
2024/01/20 00:49:30;;;;;;;10.70;3.60;;;;;;;-2.66;82.10;97197.23;108645;1270;24128;-81
2024/01/20 00:52:04;;;;;;;10.60;3.60;;;;;;;-2.66;82.10;97194.48;108731;1272;23546;-81
2024/01/20 00:54:38;;;;;;;11.30;4.80;;;;;;;-2.66;82.10;97197.95;108790;1269;24286;-81
2024/01/20 00:57:16;;;;;;;9.90;4.50;;;;;;;-2.64;81.95;97191.02;108696;1272;23913;-82
2024/01/20 00:59:49;;;;;;;8.50;4.00;;;;;;;-2.62;82.16;97193.02;108708;1272;24237;-81
2024/01/20 01:02:21;;;;;;;10.40;4.60;;;;;;;-2.62;82.07;97190.01;108705;1266;22531;-81
2024/01/20 01:04:52;;;;;;;10.10;4.70;;;;;;;-2.61;82.16;97191.89;108740;1272;22782;-81
2024/01/20 01:07:26;;;;;;;8.60;3.80;;;;;;;-2.59;82.38;97186.60;108711;1272;22526;-81
2024/01/20 01:10:03;;;;;;;9.40;4.50;;;;;;;-2.57;82.27;97191.98;108703;1272;22525;-81
2024/01/20 01:12:36;;;;;;;9.90;4.20;;;;;;;-2.53;82.15;97196.91;108705;1266;22583;-81
2024/01/20 01:15:11;;;;;;;10.70;4.60;;;;;;;-2.53;82.24;97192.41;108755;1266;22517;-81
2024/01/20 01:17:47;;;;;;;10.30;5.40;;;;;;;-2.54;82.37;97202.39;108727;1272;25887;-81
2024/01/20 01:20:25;;;;;;;13.50;4.40;;;;;;;-2.54;82.04;97205.58;108674;1267;25837;-81
2024/01/20 01:22:56;;;;;;;12.10;4.80;;;;;;;-2.55;82.17;97207.00;108774;1268;23813;-81
2024/01/20 01:25:27;;;;;;;12.70;5.10;;;;;;;-2.55;82.42;97211.13;108747;1272;22606;-81
2024/01/20 01:28:01;;;;;;;13.60;6.00;;;;;;;-2.54;82.18;97208.14;108720;1272;22975;-81
2024/01/20 01:30:37;;;;;;;9.00;4.20;;;;;;;-2.55;82.32;97207.20;108732;1266;23353;-81
2024/01/20 01:33:13;;;;;;;12.00;5.80;;;;;;;-2.55;82.38;97209.15;108698;1269;22533;-81
2024/01/20 01:35:46;;;;;;;13.70;5.40;;;;;;;-2.55;82.56;97207.16;108755;1266;22689;-81
2024/01/20 01:38:22;;;;;;;11.00;3.40;;;;;;;-2.54;82.46;97211.23;108690;1272;22510;-81
2024/01/20 01:40:55;;;;;;;15.30;4.50;;;;;;;-2.54;82.43;97208.85;108715;1272;24376;-81
2024/01/20 01:43:26;;;;;;;9.40;4.40;;;;;;;-2.55;82.40;97209.60;108704;1272;22511;-81
2024/01/20 01:46:03;;;;;;;15.50;4.20;;;;;;;-2.56;82.38;97207.12;108700;1269;24009;-81
2024/01/20 01:48:36;;;;;;;6.50;2.70;;;;;;;-2.56;82.52;97205.11;108703;1266;22528;-81
2024/01/20 01:51:14;;;;;;;9.30;3.70;;;;;;;-2.57;82.52;97211.22;108751;1272;22586;-81
2024/01/20 01:53:49;;;;;;;8.90;3.10;;;;;;;-2.57;82.67;97208.63;108719;1265;22569;-81
2024/01/20 01:56:20;;;;;;;9.80;3.70;;;;;;;-2.57;82.50;97204.34;108693;1272;22543;-81
2024/01/20 01:58:54;;;;;;;9.90;4.60;;;;;;;-2.57;82.71;97199.83;108687;1266;25385;-81
2024/01/20 02:01:28;;;;;;;11.80;4.60;;;;;;;-2.57;82.63;97203.27;108688;1272;22513;-81
2024/01/20 02:03:59;;;;;;;9.60;4.00;;;;;;;-2.59;82.77;97198.82;108753;1272;22539;-81
2024/01/20 02:06:31;;;;;;;8.80;4.20;;;;;;;-2.60;82.88;97198.41;108718;1272;25404;-81
2024/01/20 02:09:03;;;;;;;11.10;2.80;;;;;;;-2.62;82.86;97199.38;108679;1272;26773;-81
2024/01/20 02:11:36;;;;;;;8.00;4.10;;;;;;;-2.63;83.01;97203.29;108720;1269;22540;-81
2024/01/20 02:14:12;;;;;;;9.60;3.90;;;;;;;-2.62;82.97;97200.58;108708;1270;24843;-81
2024/01/20 02:16:43;;;;;;;5.70;2.60;;;;;;;-2.59;83.07;97199.34;108681;1266;22546;-81
2024/01/20 02:19:18;;;;;;;9.30;3.80;;;;;;;-2.57;83.05;97196.91;108707;1272;25290;-81
2024/01/20 02:21:49;;;;;;;11.90;4.80;;;;;;;-2.55;83.06;97196.11;108688;1272;23157;-81
2024/01/20 02:24:24;;;;;;;8.90;4.00;;;;;;;-2.53;83.12;97198.27;108707;1265;23294;-81
2024/01/20 02:26:55;;;;;;;11.40;4.30;;;;;;;-2.54;82.90;97201.37;108720;1272;22528;-81
2024/01/20 02:29:26;;;;;;;10.80;4.80;;;;;;;-2.53;83.14;97204.89;108684;1272;22536;-81
2024/01/20 02:31:57;;;;;;;7.90;3.70;;;;;;;-2.49;83.22;97206.49;108714;1273;22524;-81
2024/01/20 02:34:31;;;;;;;7.00;2.90;;;;;;;-2.46;83.23;97209.56;108734;1273;22972;-81
2024/01/20 02:37:02;;;;;;;10.90;3.70;;;;;;;-2.44;83.10;97214.45;108741;1273;22517;-81
2024/01/20 02:39:36;;;;;;;13.30;4.00;;;;;;;-2.42;83.11;97211.65;108649;1272;22573;-81
2024/01/20 02:42:10;;;;;;;13.90;5.10;;;;;;;-2.41;83.02;97213.06;108729;1266;22523;-81
2024/01/20 02:44:44;;;;;;;8.80;3.50;;;;;;;-2.40;82.98;97218.61;108729;1272;23148;-81
2024/01/20 02:47:18;;;;;;;10.70;4.00;;;;;;;-2.42;82.76;97215.84;108671;1272;22530;-81
2024/01/20 02:49:51;;;;;;;9.10;3.30;;;;;;;-2.42;82.92;97220.67;108660;1262;26084;-81
2024/01/20 02:52:22;;;;;;;8.90;3.00;;;;;;;-2.43;82.76;97221.65;108715;1269;22553;-81
2024/01/20 02:54:52;;;;;;;8.20;3.20;;;;;;;-2.44;82.81;97221.13;108736;1273;22519;-81
2024/01/20 02:57:25;;;;;;;7.90;2.70;;;;;;;-2.44;82.85;97220.64;108748;1266;25835;-81
2024/01/20 02:59:57;;;;;;;8.70;3.00;;;;;;;-2.42;82.73;97221.94;109029;1273;25463;-80
2024/01/20 03:02:28;;;;;;;4.00;2.10;;;;;;;-2.39;82.47;97221.59;108963;1266;22537;-81
2024/01/20 03:05:01;;;;;;;6.80;3.30;;;;;;;-2.35;82.54;97226.47;108782;1265;22572;-81
2024/01/20 03:07:32;;;;;;;6.70;2.60;;;;;;;-2.33;82.46;97229.41;108734;1267;22535;-81
2024/01/20 03:10:06;;;;;;;9.30;3.20;;;;;;;-2.30;82.47;97230.17;108662;1273;25406;-81
2024/01/20 03:12:37;;;;;;;8.30;2.40;;;;;;;-2.27;82.47;97229.36;108693;1265;22556;-81
2024/01/20 03:15:12;;;;;;;10.70;4.10;;;;;;;-2.27;82.24;97227.76;108691;1272;23309;-81
2024/01/20 03:17:45;;;;;;;7.30;3.20;;;;;;;-2.28;81.91;97222.23;108740;1272;22517;-81
2024/01/20 03:20:19;;;;;;;9.50;3.00;;;;;;;-2.32;81.77;97221.23;108681;1273;22970;-81
2024/01/20 03:22:57;;;;;;;9.40;3.70;;;;;;;-2.33;81.45;97220.73;108654;1266;22531;-81
2024/01/20 03:25:28;;;;;;;16.40;4.10;;;;;;;-2.35;81.76;97221.29;108712;1266;22526;-81
2024/01/20 03:27:59;;;;;;;9.40;3.30;;;;;;;-2.42;81.69;97223.59;108693;1265;22517;-81
2024/01/20 03:30:33;;;;;;;8.50;3.10;;;;;;;-2.49;81.62;97231.77;108674;1272;22606;-81
2024/01/20 03:33:06;;;;;;;10.00;2.90;;;;;;;-2.57;81.55;97232.47;108712;1266;23848;-81
2024/01/20 03:35:37;;;;;;;7.60;3.30;;;;;;;-2.63;81.52;97240.69;108711;1269;22521;-81
2024/01/20 03:38:13;;;;;;;9.80;2.60;;;;;;;-2.67;81.63;97250.90;108640;1268;24212;-81
2024/01/20 03:40:44;;;;;;;8.10;3.40;;;;;;;-2.71;81.83;97250.91;108708;1265;22523;-81
2024/01/20 03:43:15;;;;;;;10.80;3.30;;;;;;;-2.70;81.80;97250.16;108708;1273;22522;-81
2024/01/20 03:45:56;;;;;;;5.30;2.40;;;;;;;-2.73;81.93;97255.48;108676;1251;23266;-81
2024/01/20 03:48:27;;;;;;;7.30;2.80;;;;;;;-2.72;81.98;97251.06;108726;1273;24375;-81
2024/01/20 03:50:58;;;;;;;7.10;2.90;;;;;;;-2.69;82.07;97254.30;108646;1268;24513;-81
2024/01/20 03:53:29;;;;;;;4.60;1.80;;;;;;;-2.67;82.12;97255.52;108681;1272;22529;-81
2024/01/20 03:56:03;;;;;;;8.50;2.90;;;;;;;-2.64;81.97;97254.27;108694;1266;25463;-81
2024/01/20 03:58:35;;;;;;;9.10;2.10;;;;;;;-2.62;81.70;97254.37;108677;1273;22543;-81
2024/01/20 04:01:08;;;;;;;3.20;2.00;;;;;;;-2.62;81.82;97255.48;108661;1266;22719;-81
2024/01/20 04:03:41;;;;;;;8.60;2.60;;;;;;;-2.64;81.60;97251.99;108712;1272;22531;-81
2024/01/20 04:06:13;;;;;;;10.40;2.60;;;;;;;-2.66;81.71;97250.72;108762;1273;22517;-81
2024/01/20 04:08:47;;;;;;;4.10;2.00;;;;;;;-2.68;81.78;97252.67;108680;1273;22606;-81
2024/01/20 04:11:21;;;;;;;10.00;2.80;;;;;;;-2.66;81.62;97249.16;108649;1272;22517;-81
2024/01/20 04:13:56;;;;;;;9.10;3.00;;;;;;;-2.64;81.50;97250.83;108675;1273;22518;-81
2024/01/20 04:16:31;;;;;;;11.30;2.80;;;;;;;-2.65;81.59;97255.41;108683;1250;22618;-81
2024/01/20 04:19:06;;;;;;;5.60;2.40;;;;;;;-2.72;81.32;97260.77;108678;1272;24909;-81
2024/01/20 04:21:39;;;;;;;4.00;1.80;;;;;;;-2.76;81.45;97260.84;108670;1273;25479;-81
2024/01/20 04:24:11;;;;;;;6.80;2.10;;;;;;;-2.79;81.47;97258.84;108713;1272;22938;-81
2024/01/20 04:26:47;;;;;;;7.50;3.90;;;;;;;-2.78;81.58;97257.27;108700;1273;22630;-81
2024/01/20 04:29:22;;;;;;;7.90;2.80;;;;;;;-2.72;81.50;97260.09;108680;1261;22543;-81
2024/01/20 04:31:55;;;;;;;4.60;2.00;;;;;;;-2.74;81.26;97255.27;108705;1266;22522;-81
2024/01/20 04:34:28;;;;;;;7.80;2.10;;;;;;;-2.74;81.21;97251.99;108735;1273;22527;-81
2024/01/20 04:37:00;;;;;;;6.20;2.80;;;;;;;-2.74;81.18;97252.67;108717;1272;23371;-81
2024/01/20 04:39:41;;;;;;;12.60;2.90;;;;;;;-2.75;81.09;97249.34;108678;1272;25408;-81
2024/01/20 04:42:12;;;;;;;9.40;3.20;;;;;;;-2.79;81.08;97247.55;108733;1265;22532;-81
2024/01/20 04:44:43;;;;;;;4.80;2.30;;;;;;;-2.84;81.00;97253.69;108790;1273;23349;-81
2024/01/20 04:47:17;;;;;;;4.20;2.40;;;;;;;-2.89;81.19;97253.45;108699;1270;22561;-81
2024/01/20 04:49:51;;;;;;;7.30;2.70;;;;;;;-2.92;81.33;97253.58;108680;1273;22525;-81
2024/01/20 04:52:25;;;;;;;4.60;2.40;;;;;;;-2.97;81.27;97252.55;108750;1259;22516;-81
2024/01/20 04:54:58;;;;;;;7.70;2.40;;;;;;;-3.01;81.57;97252.48;108709;1273;22659;-81
2024/01/20 04:57:32;;;;;;;4.50;1.60;;;;;;;-2.99;81.60;97249.59;108703;1272;23427;-81
2024/01/20 05:00:06;;;;;;;9.00;2.50;;;;;;;-3.00;81.54;97253.13;108709;1266;22517;-81
2024/01/20 05:02:39;;;;;;;7.20;2.30;;;;;;;-3.03;81.69;97250.46;108692;1273;25297;-81
2024/01/20 05:05:11;;;;;;;4.30;2.40;;;;;;;-3.05;81.66;97249.16;108694;1273;22640;-81
2024/01/20 05:07:42;;;;;;;7.30;2.60;;;;;;;-3.09;81.73;97250.15;108674;1273;22523;-81
2024/01/20 05:10:14;;;;;;;5.50;2.60;;;;;;;-3.07;81.86;97257.95;108711;1272;24228;-81
2024/01/20 05:12:45;;;;;;;3.90;1.90;;;;;;;-3.09;81.74;97256.64;108725;1272;22517;-81
2024/01/20 05:15:18;;;;;;;4.20;2.00;;;;;;;-3.13;81.73;97264.98;108699;1272;22510;-81
2024/01/20 05:17:50;;;;;;;6.60;2.80;;;;;;;-3.18;81.69;97271.22;108710;1272;22532;-81
2024/01/20 05:20:21;;;;;;;8.10;2.30;;;;;;;-3.22;81.81;97263.11;108716;1273;24232;-81
2024/01/20 05:22:54;;;;;;;6.00;2.60;;;;;;;-3.22;81.95;97273.11;108726;1272;27130;-81
2024/01/20 05:25:28;;;;;;;8.60;2.50;;;;;;;-3.23;82.07;97273.80;108714;1272;22628;-81
2024/01/20 05:28:01;;;;;;;8.50;3.00;;;;;;;-3.22;82.13;97272.86;108652;1266;22513;-81
2024/01/20 05:30:34;;;;;;;7.30;2.80;;;;;;;-3.24;82.24;97283.52;108677;1272;24305;-81
2024/01/20 05:33:08;;;;;;;4.70;2.50;;;;;;;-3.23;82.25;97279.83;108709;1269;24204;-81
2024/01/20 05:35:41;;;;;;;8.70;3.10;;;;;;;-3.25;82.37;97289.19;108697;1273;25131;-81
2024/01/20 05:38:12;;;;;;;7.80;3.00;;;;;;;-3.26;82.20;97288.46;108692;1269;24180;-81
2024/01/20 05:40:43;;;;;;;8.00;3.40;;;;;;;-3.29;82.18;97290.48;108699;1272;22517;-81
2024/01/20 05:43:17;;;;;;;7.30;2.20;;;;;;;-3.32;82.17;97293.80;108719;1272;24202;-81
2024/01/20 05:45:47;;;;;;;9.20;3.70;;;;;;;-3.32;82.37;97296.06;108706;1270;22561;-81
2024/01/20 05:48:21;;;;;;;10.60;3.60;;;;;;;-3.34;82.23;97297.44;108672;1266;26950;-81
2024/01/20 05:50:55;;;;;;;8.10;3.00;;;;;;;-3.37;82.24;97302.89;108679;1251;22586;-81
2024/01/20 05:53:26;;;;;;;11.10;3.30;;;;;;;-3.45;82.28;97302.86;108729;1266;24025;-81
2024/01/20 05:55:59;;;;;;;7.50;2.90;;;;;;;-3.43;82.45;97314.55;108699;1266;27293;-81
2024/01/20 05:58:33;;;;;;;7.90;3.40;;;;;;;-3.43;82.47;97315.73;108721;1273;22525;-81
2024/01/20 06:01:04;;;;;;;4.30;2.40;;;;;;;-3.43;82.41;97326.02;108673;1273;25203;-81
2024/01/20 06:03:36;;;;;;;14.30;4.10;;;;;;;-3.45;82.45;97325.31;108723;1272;22683;-81
2024/01/20 06:06:08;;;;;;;9.20;2.30;;;;;;;-3.46;82.35;97326.52;108718;1273;22514;-81
2024/01/20 06:08:39;;;;;;;8.30;3.10;;;;;;;-3.49;82.23;97329.23;108666;1269;22514;-81
2024/01/20 06:11:11;;;;;;;12.00;2.20;;;;;;;-3.48;82.28;97331.08;108719;1272;23323;-81
2024/01/20 06:13:43;;;;;;;8.30;4.40;;;;;;;-3.47;82.38;97330.88;108688;1273;22571;-81
2024/01/20 06:16:16;;;;;;;9.40;4.90;;;;;;;-3.42;82.39;97330.67;108712;1272;22573;-81
2024/01/20 06:18:50;;;;;;;7.20;2.30;;;;;;;-3.41;82.28;97337.17;108678;1273;25416;-81
2024/01/20 06:21:25;;;;;;;8.60;2.70;;;;;;;-3.43;82.28;97342.70;108695;1266;22536;-81
2024/01/20 06:23:58;;;;;;;3.70;1.80;;;;;;;-3.44;82.15;97345.65;108734;1273;25092;-81
2024/01/20 06:26:31;;;;;;;6.00;3.00;;;;;;;-3.47;81.98;97345.38;108690;1272;22518;-81
2024/01/20 06:29:07;;;;;;;7.50;3.00;;;;;;;-3.48;82.00;97344.48;108697;1267;25709;-81
2024/01/20 06:31:42;;;;;;;10.50;3.20;;;;;;;-3.47;81.97;97348.95;108738;1266;22516;-81
2024/01/20 06:34:16;;;;;;;10.40;4.20;;;;;;;-3.52;81.80;97341.66;108701;1263;24654;-81
2024/01/20 06:36:49;;;;;;;11.70;3.50;;;;;;;-3.56;81.79;97343.89;108705;1272;22846;-80
2024/01/20 06:39:20;;;;;;;7.80;3.00;;;;;;;-3.48;81.68;97340.09;108682;1273;22563;-80
2024/01/20 06:41:51;;;;;;;8.20;4.30;;;;;;;-3.49;81.50;97349.33;108693;1256;24152;-80
2024/01/20 06:44:28;;;;;;;8.80;3.70;;;;;;;-3.54;81.44;97346.06;108690;1272;23321;-81
2024/01/20 06:47:03;;;;;;;11.10;3.50;;;;;;;-3.55;81.41;97346.56;108717;1273;24923;-80
2024/01/20 06:49:40;;;;;;;6.20;3.20;;;;;;;-3.57;81.46;97347.26;108659;1269;22759;-80
2024/01/20 06:52:11;;;;;;;4.10;2.60;;;;;;;-3.58;81.36;97352.52;108712;1266;24206;-80
2024/01/20 06:54:43;;;;;;;6.90;3.20;;;;;;;-3.56;81.51;97352.17;108711;1272;22517;-80
2024/01/20 06:57:19;;;;;;;7.60;2.50;;;;;;;-3.53;81.45;97355.90;108680;1265;22582;-81
2024/01/20 06:59:52;;;;;;;3.70;1.90;;;;;;;-3.45;81.45;97359.36;108752;1266;25404;-81
2024/01/20 07:02:30;;;;;;;6.10;2.70;;;;;;;-3.29;81.38;97354.43;108719;1267;23017;-81
2024/01/20 07:05:10;;;;;;;6.60;2.70;;;;;;;-2.96;81.44;97355.89;108721;1269;22542;-81
2024/01/20 07:07:44;;;;;;;7.90;2.50;;;;;;;-2.64;81.06;97351.39;108706;1272;22527;-81
2024/01/20 07:10:18;;;;;;;7.80;3.20;;;;;;;-2.47;80.57;97359.08;108715;1269;23103;-81
2024/01/20 07:12:50;;;;;;;6.00;2.50;;;;;;;-2.23;80.23;97360.61;108800;1273;24016;-81
2024/01/20 07:15:24;;;;;;;5.30;2.10;;;;;;;-2.01;79.63;97359.89;108682;1269;22523;-82
2024/01/20 07:18:03;;;;;;;4.90;2.30;;;;;;;-1.82;78.15;97360.60;108684;1251;22639;-81
2024/01/20 07:20:37;;;;;;;3.70;1.70;;;;;;;-1.61;77.43;97360.50;108710;1273;23900;-81
2024/01/20 07:23:13;;;;;;;6.10;2.40;;;;;;;-1.45;76.47;97365.71;108775;1273;22556;-81
2024/01/20 07:25:47;;;;;;;6.50;3.00;;;;;;;-1.36;74.65;97371.54;108787;1266;22473;-80
2024/01/20 07:28:17;;;;;;;9.50;3.20;;;;;;;-1.30;73.71;97375.02;108958;1273;22586;-81
2024/01/20 07:30:51;;;;;;;12.20;3.60;;;;;;;-1.19;73.12;97366.91;108998;1273;23050;-80
2024/01/20 07:33:26;;;;;;;10.50;2.90;;;;;;;-1.10;72.46;97366.67;108783;1266;22566;-81
2024/01/20 07:35:58;;;;;;;6.60;2.90;;;;;;;-0.95;71.86;97366.77;108665;1273;25265;-80
2024/01/20 07:38:30;;;;;;;5.80;3.00;;;;;;;-0.88;71.16;97364.95;108678;1266;22648;-81
2024/01/20 07:41:05;;;;;;;4.60;2.50;;;;;;;-0.83;70.52;97371.17;108703;1273;22599;-80
2024/01/20 07:43:39;;;;;;;10.20;3.80;;;;;;;-0.82;69.91;97382.27;108708;1266;23837;-80
2024/01/20 07:46:17;;;;;;;6.00;2.60;;;;;;;-0.75;70.07;97384.15;108701;1272;22529;-80
2024/01/20 07:48:49;;;;;;;6.80;2.90;;;;;;;-0.76;69.00;97389.31;108666;1269;25107;-80
2024/01/20 07:51:22;;;;;;;8.70;3.80;;;;;;;-0.74;68.67;97390.93;108670;1273;22539;-80
2024/01/20 07:53:56;;;;;;;7.20;3.30;;;;;;;-0.66;68.75;97387.65;108691;1273;23004;-80
2024/01/20 07:56:27;;;;;;;6.70;3.80;;;;;;;-0.67;68.09;97387.96;108691;1269;22517;-79
2024/01/20 07:58:59;;;;;;;5.90;2.50;;;;;;;-0.76;67.29;97391.48;108693;1273;22606;-80
2024/01/20 08:01:30;;;;;;;5.10;3.10;;;;;;;-0.86;66.56;97393.92;108689;1273;24219;-80
2024/01/20 08:04:02;;;;;;;3.50;1.90;;;;;;;-0.96;66.35;97401.23;108670;1267;25249;-79
2024/01/20 08:06:33;;;;;;;6.80;3.10;;;;;;;-1.01;66.48;97407.10;108652;1269;22807;-79
2024/01/20 08:09:10;;;;;;;4.70;2.40;;;;;;;-0.98;67.19;97408.38;108642;1266;23771;-80
2024/01/20 08:11:44;;;;;;;13.00;2.90;;;;;;;-0.80;67.36;97417.36;108675;1266;22516;-79
2024/01/20 08:14:18;;;;;;;8.50;3.30;;;;;;;-0.66;66.97;97422.22;108688;1272;22518;-79
2024/01/20 08:16:52;;;;;;;5.10;3.10;;;;;;;-0.51;67.04;97420.09;108688;1273;23823;-79
2024/01/20 08:19:24;;;;;;;5.90;2.40;;;;;;;-0.35;66.08;97413.73;108702;1272;22963;-79
2024/01/20 08:22:04;;;;;;;5.20;2.30;;;;;;;-0.36;64.68;97423.70;108703;1272;23206;-79
2024/01/20 08:24:36;;;;;;;6.80;2.90;;;;;;;-0.45;64.97;97427.27;108738;1273;22547;-79
2024/01/20 08:27:08;;;;;;;7.20;3.10;;;;;;;-0.46;64.58;97430.27;108783;1273;22749;-79
2024/01/20 08:29:44;;;;;;;5.00;3.10;;;;;;;-0.53;64.17;97430.73;108643;1269;22508;-79
2024/01/20 08:32:17;;;;;;;5.50;2.60;;;;;;;-0.60;64.28;97441.42;108710;1269;22688;-80
2024/01/20 08:34:53;;;;;;;5.90;2.90;;;;;;;-0.61;64.02;97443.52;108704;1272;22543;-79
2024/01/20 08:37:27;;;;;;;5.80;2.70;;;;;;;-0.59;64.50;97451.23;108623;1269;23234;-79
2024/01/20 08:40:03;;;;;;;8.60;3.90;;;;;;;-0.52;64.51;97457.13;108691;1270;23797;-79
2024/01/20 08:42:39;;;;;;;10.40;3.50;;;;;;;-0.45;64.18;97463.90;108709;1250;22503;-79
2024/01/20 08:45:12;;;;;;;8.80;3.80;;;;;;;-0.43;64.16;97460.71;108675;1266;22513;-79
2024/01/20 08:47:44;;;;;;;6.10;2.20;;;;;;;-0.42;64.10;97464.65;108683;1272;25424;-79
2024/01/20 08:50:22;;;;;;;5.50;2.50;;;;;;;-0.49;63.74;97463.55;108696;1272;22528;-79
2024/01/20 08:52:53;;;;;;;5.20;3.20;;;;;;;-0.53;63.54;97470.45;108699;1272;25075;-80
2024/01/20 08:55:27;;;;;;;6.20;3.10;;;;;;;-0.52;63.60;97469.50;108686;1257;22517;-80
2024/01/20 08:58:01;;;;;;;7.50;3.40;;;;;;;-0.50;63.87;97467.71;108693;1272;22523;-80
2024/01/20 09:00:37;;;;;;;5.20;3.40;;;;;;;-0.52;63.68;97469.62;108718;1262;24190;-80
2024/01/20 09:03:11;;;;;;;4.50;2.60;;;;;;;-0.40;64.28;97475.48;108719;1272;22517;-81
2024/01/20 09:05:46;;;;;;;5.20;2.80;;;;;;;-0.22;63.71;97473.24;108720;1266;22539;-80
2024/01/20 09:08:21;;;;;;;9.10;4.60;;;;;;;-0.18;62.84;97476.75;108666;1272;25319;-80
2024/01/20 09:11:02;;;;;;;5.80;3.00;;;;;;;-0.05;63.10;97471.67;108619;1272;22645;-80
2024/01/20 09:13:41;;;;;;;5.90;3.00;;;;;;;-0.02;62.04;97470.10;108694;1272;22777;-80
2024/01/20 09:16:22;;;;;;;5.30;3.60;;;;;;;-0.13;61.98;97475.67;108711;1272;23789;-81
2024/01/20 09:18:58;;;;;;;4.70;2.30;;;;;;;-0.24;61.70;97477.87;108702;1272;27550;-80
2024/01/20 09:21:33;;;;;;;7.40;3.20;;;;;;;-0.26;61.98;97477.23;108670;1272;22501;-80
2024/01/20 09:24:10;;;;;;;6.50;2.60;;;;;;;-0.21;62.35;97479.05;108732;1270;23467;-80
2024/01/20 09:26:44;;;;;;;7.50;2.90;;;;;;;-0.08;62.60;97486.09;108719;1272;22519;-80
2024/01/20 09:29:24;;;;;;;4.80;2.00;;;;;;;-0.13;62.40;97483.69;108704;1269;22528;-79
2024/01/20 09:31:58;;;;;;;5.00;2.80;;;;;;;-0.16;62.63;97483.98;108687;1266;22535;-79
2024/01/20 09:34:34;;;;;;;7.20;3.60;;;;;;;-0.17;61.91;97480.01;108678;1273;22528;-80
2024/01/20 09:37:07;;;;;;;7.10;3.80;;;;;;;-0.18;62.48;97488.09;108645;1272;25410;-80
2024/01/20 09:39:46;;;;;;;6.90;3.30;;;;;;;-0.10;62.45;97491.41;108665;1273;22517;-79
2024/01/20 09:42:26;;;;;;;6.90;2.90;;;;;;;-0.19;62.78;97493.58;108663;1271;25291;-79
2024/01/20 09:45:07;;;;;;;6.70;3.10;;;;;;;-0.22;63.33;97489.47;108681;1266;26536;-79
2024/01/20 09:47:39;;;;;;;7.10;3.40;;;;;;;-0.23;62.90;97488.50;108684;1272;22517;-79
2024/01/20 09:50:12;;;;;;;7.30;3.40;;;;;;;-0.29;63.01;97492.54;108693;1266;24032;-79
2024/01/20 09:52:57;;;;;;;5.80;2.70;;;;;;;-0.24;63.49;97490.39;108686;1269;22517;-79
2024/01/20 09:55:32;;;;;;;5.70;3.10;;;;;;;-0.16;63.88;97487.27;108656;1269;23789;-79
2024/01/20 09:58:12;;;;;;;5.40;3.20;;;;;;;-0.11;64.11;97490.01;108666;1272;22587;-79
2024/01/20 10:00:46;;;;;;;7.20;3.60;;;;;;;-0.07;64.52;97492.03;108660;1266;22531;-79
2024/01/20 10:03:25;;;;;;;7.10;2.90;;;;;;;0.05;64.72;97487.20;108770;1273;24197;-78
2024/01/20 10:05:59;;;;;;;8.70;4.20;;;;;;;0.11;64.40;97482.61;108686;1272;22927;-78
2024/01/20 10:08:33;;;;;;;7.50;3.80;;;;;;;0.09;64.36;97479.68;108656;1269;24031;-79
2024/01/20 10:11:10;;;;;;;8.10;3.80;;;;;;;-0.02;64.85;97480.63;108734;1272;22568;-79
2024/01/20 10:13:44;;;;;;;11.30;4.60;;;;;;;0.09;65.12;97480.96;108648;1265;22570;-79
2024/01/20 10:16:20;;;;;;;4.30;2.40;;;;;;;0.16;65.44;97479.14;108678;1269;23835;-81
2024/01/20 10:18:53;;;;;;;10.50;5.90;;;;;;;0.14;65.29;97483.52;108756;1269;23749;-80
2024/01/20 10:21:26;;;;;;;16.80;9.30;;;;;;;0.09;65.23;97478.80;108669;1272;22645;-80
2024/01/20 10:23:59;;;;;;;10.60;6.00;;;;;;;0.06;65.69;97479.34;108651;1269;26767;-80
2024/01/20 10:26:44;;;;;;;7.70;4.30;;;;;;;0.07;65.44;97486.92;108680;1266;22517;-79
2024/01/20 10:29:16;;;;;;;6.60;3.10;;;;;;;0.03;65.41;97487.27;108770;1273;22565;-79
2024/01/20 10:31:50;;;;;;;10.80;3.30;;;;;;;-0.02;65.47;97486.25;108705;1266;22546;-79
2024/01/20 10:34:24;;;;;;;7.00;3.10;;;;;;;-0.10;65.59;97476.42;108700;1272;25282;-79
2024/01/20 10:37:03;;;;;;;6.90;3.40;;;;;;;-0.11;65.42;97476.82;108651;1266;22619;-80
2024/01/20 10:39:43;;;;;;;5.50;3.10;;;;;;;-0.16;65.52;97485.83;108703;1273;22528;-79
2024/01/20 10:42:17;;;;;;;7.50;3.80;;;;;;;-0.18;65.95;97483.02;108658;1269;25502;-79
2024/01/20 10:44:57;;;;;;;6.30;3.60;;;;;;;-0.23;65.51;97480.84;108739;1273;25681;-79
2024/01/20 10:47:37;;;;;;;8.20;3.70;;;;;;;-0.29;65.96;97479.27;108657;1269;23981;-79
2024/01/20 10:50:14;;;;;;;8.80;4.10;;;;;;;-0.24;66.66;97478.77;108672;1273;26276;-79
2024/01/20 10:52:50;;;;;;;7.30;2.90;;;;;;;-0.19;66.46;97478.58;108828;1269;24905;-79
2024/01/20 10:55:23;;;;;;;5.00;2.70;;;;;;;-0.22;66.31;97475.23;108811;1266;22605;-78
2024/01/20 10:57:56;;;;;;;5.70;3.30;;;;;;;-0.20;66.31;97476.14;108825;1273;25326;-79
2024/01/20 11:00:32;;;;;;;11.10;3.70;;;;;;;-0.11;66.92;97468.88;108748;1266;26452;-78
2024/01/20 11:03:07;;;;;;;6.90;2.80;;;;;;;-0.07;66.96;97472.83;108787;1272;23986;-78
2024/01/20 11:05:48;;;;;;;10.20;4.00;;;;;;;-0.02;66.81;97460.96;108836;1273;22552;-78
2024/01/20 11:08:35;;;;;;;7.70;2.50;;;;;;;-0.02;67.24;97465.32;108687;1273;22521;-77
2024/01/20 11:11:12;;;;;;;9.60;4.60;;;;;;;0.10;66.96;97459.79;108804;1269;25427;-77
2024/01/20 11:13:45;;;;;;;8.50;4.50;;;;;;;0.18;67.27;97461.46;108772;1273;22511;-77
2024/01/20 11:16:24;;;;;;;9.30;4.70;;;;;;;0.15;67.27;97453.89;108850;1269;22629;-77
2024/01/20 11:19:05;;;;;;;7.60;3.40;;;;;;;0.04;67.46;97457.23;108782;1250;24033;-77
2024/01/20 11:21:37;;;;;;;6.10;2.60;;;;;;;-0.03;67.15;97460.46;108779;1267;22949;-77
2024/01/20 11:24:10;;;;;;;6.20;3.00;;;;;;;-0.07;67.30;97460.36;108778;1273;23083;-77
2024/01/20 11:26:45;;;;;;;13.10;7.50;;;;;;;-0.08;67.36;97457.66;108816;1272;22775;-77
2024/01/20 11:29:17;;;;;;;7.90;4.30;;;;;;;-0.01;68.15;97447.54;108708;1267;29057;-78
2024/01/20 11:31:52;;;;;;;8.00;4.30;;;;;;;0.05;68.09;97457.60;108802;1266;22577;-77
2024/01/20 11:34:24;;;;;;;7.80;3.30;;;;;;;0.10;68.15;97456.06;108784;1273;22647;-78
2024/01/20 11:36:59;;;;;;;8.00;3.30;;;;;;;0.06;67.86;97451.75;108777;1269;22612;-78
2024/01/20 11:39:32;;;;;;;6.40;3.20;;;;;;;-0.00;68.05;97447.61;108765;1273;24237;-78
2024/01/20 11:42:10;;;;;;;7.60;3.80;;;;;;;-0.03;67.96;97447.19;108803;1272;22527;-77
2024/01/20 11:44:43;;;;;;;7.50;3.90;;;;;;;-0.04;68.20;97443.61;108809;1272;22538;-78
2024/01/20 11:47:15;;;;;;;9.20;4.10;;;;;;;-0.03;68.45;97441.70;108738;1266;22520;-77
2024/01/20 11:49:47;;;;;;;4.50;2.30;;;;;;;-0.02;68.71;97443.54;108777;1263;22523;-77
2024/01/20 11:52:27;;;;;;;9.30;3.90;;;;;;;0.01;68.67;97436.73;108775;1272;22573;-77
2024/01/20 11:55:00;;;;;;;8.10;3.80;;;;;;;0.05;68.89;97433.85;108783;1272;23863;-77